Time;durP1;ratioP1;P1;durP2;ratioP2;P2;SDS_P1;SDS_P2;PMS_P1;PMS_P2;Temp;Humidity;BMP_temperature;BMP_pressure;BME280_temperature;BME280_humidity;BME280_pressure;Samples;Min_cycle;Max_cycle;Signal;HPM_P1;HPM_P2
2022/05/26 00:01:45;;;;;;;17.77;8.77;;;;;;;;;;5041340;28;20435;-72
2022/05/26 00:04:10;;;;;;;15.55;8.82;;;;;;;;;;5035447;28;20296;-74
2022/05/26 00:06:35;;;;;;;18.58;9.70;;;;;;;;;;5039882;28;20273;-72
2022/05/26 00:09:01;;;;;;;16.75;8.70;;;;;;;;;;5041501;28;20295;-72
2022/05/26 00:11:31;;;;;;;20.17;9.15;;;;;;;;;;5046781;28;20186;-74
2022/05/26 00:13:57;;;;;;;18.92;7.93;;;;;;;;;;5043970;28;20208;-74
2022/05/26 00:16:22;;;;;;;20.85;10.90;;;;;;;;;;5043511;28;20598;-72
2022/05/26 00:18:48;;;;;;;18.60;9.75;;;;;;;;;;5044207;28;20201;-71
2022/05/26 00:21:13;;;;;;;17.70;10.27;;;;;;;;;;5046288;28;20184;-73
2022/05/26 00:23:39;;;;;;;17.55;8.93;;;;;;;;;;5050541;28;20193;-73
2022/05/26 00:26:04;;;;;;;19.15;8.93;;;;;;;;;;5032576;28;20204;-73
2022/05/26 00:28:31;;;;;;;19.83;9.35;;;;;;;;;;5050463;28;20280;-71
2022/05/26 00:30:56;;;;;;;17.35;8.77;;;;;;;;;;5049247;28;20224;-72
2022/05/26 00:33:21;;;;;;;19.27;10.30;;;;;;;;;;5026951;28;20197;-72
2022/05/26 00:35:47;;;;;;;21.48;9.85;;;;;;;;;;5030928;28;20181;-71
2022/05/26 00:38:13;;;;;;;22.65;10.00;;;;;;;;;;5049244;28;20709;-72
2022/05/26 00:40:40;;;;;;;21.95;9.77;;;;;;;;;;5043647;28;20709;-71
2022/05/26 00:43:05;;;;;;;23.10;10.20;;;;;;;;;;5048995;28;20198;-72
2022/05/26 00:45:51;;;;;;;22.92;10.13;;;;;;;;;;5050239;28;20204;-72
2022/05/26 00:48:18;;;;;;;22.35;9.57;;;;;;;;;;5049294;28;20193;-72
2022/05/26 00:50:48;;;;;;;20.15;9.25;;;;;;;;;;5029067;28;20239;-72
2022/05/26 00:53:16;;;;;;;24.92;11.35;;;;;;;;;;5046924;28;20698;-72
2022/05/26 00:55:47;;;;;;;20.65;10.25;;;;;;;;;;5050080;28;20197;-72
2022/05/26 00:58:14;;;;;;;23.60;9.98;;;;;;;;;;5047327;28;20583;-73
2022/05/26 01:00:40;;;;;;;21.05;10.70;;;;;;;;;;5047157;28;20215;-72
2022/05/26 01:03:11;;;;;;;33.67;11.60;;;;;;;;;;5048680;28;20267;-73
2022/05/26 01:05:39;;;;;;;26.35;10.68;;;;;;;;;;5029509;28;20185;-72
2022/05/26 01:08:07;;;;;;;26.75;12.23;;;;;;;;;;5048001;28;20553;-72
2022/05/26 01:10:32;;;;;;;26.15;10.55;;;;;;;;;;5048506;28;20210;-72
2022/05/26 01:12:57;;;;;;;24.90;10.05;;;;;;;;;;5046031;28;20213;-73
2022/05/26 01:15:23;;;;;;;24.55;9.38;;;;;;;;;;5042517;28;20182;-72
2022/05/26 01:17:51;;;;;;;29.27;10.48;;;;;;;;;;5038900;28;20223;-73
2022/05/26 01:20:16;;;;;;;25.70;10.45;;;;;;;;;;5040626;28;20599;-72
2022/05/26 01:22:50;;;;;;;30.30;10.25;;;;;;;;;;5038585;28;20217;-72
2022/05/26 01:25:21;;;;;;;24.00;10.70;;;;;;;;;;5046227;28;20268;-72
2022/05/26 01:27:58;;;;;;;26.55;9.85;;;;;;;;;;5049183;28;20192;-72
2022/05/26 01:30:49;;;;;;;26.23;11.57;;;;;;;;;;5048101;28;20261;-73
2022/05/26 01:33:34;;;;;;;31.00;10.45;;;;;;;;;;5010808;28;20213;-72
2022/05/26 01:36:08;;;;;;;29.13;9.77;;;;;;;;;;5048258;28;20178;-73
2022/05/26 01:38:33;;;;;;;24.75;9.38;;;;;;;;;;5042696;28;20208;-73
2022/05/26 01:41:12;;;;;;;22.63;8.80;;;;;;;;;;5040848;28;20181;-73
2022/05/26 01:43:37;;;;;;;27.85;9.35;;;;;;;;;;5043034;28;20449;-72
2022/05/26 01:46:02;;;;;;;25.30;9.52;;;;;;;;;;5047585;28;20173;-73
2022/05/26 01:48:34;;;;;;;35.67;10.63;;;;;;;;;;5046664;28;20422;-73
2022/05/26 01:51:04;;;;;;;20.73;9.55;;;;;;;;;;5049642;28;20827;-73
2022/05/26 01:53:29;;;;;;;21.25;8.85;;;;;;;;;;5052160;28;20210;-73
2022/05/26 01:56:01;;;;;;;18.92;9.75;;;;;;;;;;5052618;28;20534;-73
2022/05/26 01:58:37;;;;;;;26.33;9.95;;;;;;;;;;5050483;28;20226;-73
2022/05/26 02:01:06;;;;;;;24.30;8.73;;;;;;;;;;5035630;28;20180;-73
2022/05/26 02:03:32;;;;;;;23.40;8.32;;;;;;;;;;5036460;28;20581;-73
2022/05/26 02:06:03;;;;;;;24.88;9.73;;;;;;;;;;5030072;28;20384;-73
2022/05/26 02:08:33;;;;;;;22.88;8.82;;;;;;;;;;5050407;28;20201;-73
2022/05/26 02:10:58;;;;;;;26.60;9.30;;;;;;;;;;5050453;28;20182;-73
2022/05/26 02:13:31;;;;;;;21.30;8.07;;;;;;;;;;5050392;28;20208;-74
2022/05/26 02:15:58;;;;;;;16.45;8.32;;;;;;;;;;5032239;28;20433;-72
2022/05/26 02:18:27;;;;;;;24.83;8.25;;;;;;;;;;5042152;28;20580;-73
2022/05/26 02:21:03;;;;;;;19.77;9.10;;;;;;;;;;5053562;28;20177;-73
2022/05/26 02:23:40;;;;;;;22.50;7.43;;;;;;;;;;5034565;28;20690;-72
2022/05/26 02:26:06;;;;;;;24.17;8.38;;;;;;;;;;5033183;28;20177;-73
2022/05/26 02:31:18;;;;;;;28.73;9.05;;;;;;;;;;5052988;28;20686;-72
2022/05/26 02:33:44;;;;;;;21.85;9.07;;;;;;;;;;5029867;28;20738;-72
2022/05/26 02:36:09;;;;;;;23.10;8.15;;;;;;;;;;5056004;28;20174;-72
2022/05/26 02:38:34;;;;;;;22.65;7.72;;;;;;;;;;5050444;28;20694;-72
2022/05/26 02:41:01;;;;;;;19.30;7.37;;;;;;;;;;5051874;28;20174;-73
2022/05/26 02:43:27;;;;;;;21.75;7.68;;;;;;;;;;5035130;28;20857;-73
2022/05/26 02:45:52;;;;;;;24.27;7.03;;;;;;;;;;5035247;28;20184;-72
2022/05/26 02:48:36;;;;;;;23.35;7.68;;;;;;;;;;5033256;28;20260;-73
2022/05/26 02:51:07;;;;;;;21.52;7.03;;;;;;;;;;5048800;28;20219;-73
2022/05/26 02:53:41;;;;;;;23.08;6.55;;;;;;;;;;5050253;28;20572;-73
2022/05/26 02:56:06;;;;;;;29.25;8.23;;;;;;;;;;5026512;28;20182;-72
2022/05/26 02:58:37;;;;;;;25.83;8.03;;;;;;;;;;5050820;28;20205;-73
2022/05/26 03:01:06;;;;;;;18.20;5.90;;;;;;;;;;5041321;28;20427;-72
2022/05/26 03:03:47;;;;;;;26.08;6.68;;;;;;;;;;5052922;28;20194;-72
2022/05/26 03:06:17;;;;;;;20.05;7.00;;;;;;;;;;5050364;28;20220;-74
2022/05/26 03:08:43;;;;;;;29.27;6.68;;;;;;;;;;5051272;28;20747;-72
2022/05/26 03:11:10;;;;;;;16.73;6.25;;;;;;;;;;5047778;28;20656;-72
2022/05/26 03:13:35;;;;;;;25.73;7.65;;;;;;;;;;5042385;28;20581;-72
2022/05/26 03:16:00;;;;;;;20.27;6.25;;;;;;;;;;5044938;28;20190;-74
2022/05/26 03:18:25;;;;;;;16.35;5.72;;;;;;;;;;5046708;28;20626;-73
2022/05/26 03:20:51;;;;;;;20.58;6.05;;;;;;;;;;5045776;28;20173;-73
2022/05/26 03:23:16;;;;;;;17.92;5.15;;;;;;;;;;5044531;28;20205;-73
2022/05/26 03:25:45;;;;;;;14.82;5.40;;;;;;;;;;5043905;28;20231;-73
2022/05/26 03:28:10;;;;;;;18.52;5.78;;;;;;;;;;5052548;28;20272;-73
2022/05/26 03:30:36;;;;;;;17.50;5.13;;;;;;;;;;5052856;28;20182;-73
2022/05/26 03:33:02;;;;;;;17.65;6.00;;;;;;;;;;5049731;28;20194;-73
2022/05/26 03:40:58;;;;;;;19.98;6.03;;;;;;;;;;5049856;28;20224;-73
2022/05/26 03:43:28;;;;;;;14.65;4.45;;;;;;;;;;5050248;28;20194;-73
2022/05/26 03:45:53;;;;;;;15.15;4.40;;;;;;;;;;5047080;28;20174;-72
2022/05/26 03:48:18;;;;;;;14.82;4.78;;;;;;;;;;5048890;28;20181;-73
2022/05/26 03:50:43;;;;;;;17.85;4.53;;;;;;;;;;5052347;28;20180;-72
2022/05/26 03:53:08;;;;;;;14.90;4.80;;;;;;;;;;5047808;28;20243;-72
2022/05/26 03:55:34;;;;;;;18.05;6.70;;;;;;;;;;5052207;28;20181;-74
2022/05/26 03:58:01;;;;;;;12.95;4.20;;;;;;;;;;5052533;28;20201;-72
2022/05/26 04:00:26;;;;;;;11.18;4.53;;;;;;;;;;5046717;28;20178;-72
2022/05/26 04:02:52;;;;;;;10.65;4.07;;;;;;;;;;5047895;28;20675;-74
2022/05/26 04:05:17;;;;;;;13.80;3.75;;;;;;;;;;5044455;28;20540;-73
2022/05/26 04:07:43;;;;;;;15.30;5.72;;;;;;;;;;5047496;28;20639;-74
2022/05/26 04:10:09;;;;;;;8.07;3.90;;;;;;;;;;5046124;28;20632;-73
2022/05/26 04:12:35;;;;;;;11.50;3.78;;;;;;;;;;5051111;28;20574;-73
2022/05/26 04:15:02;;;;;;;14.13;4.13;;;;;;;;;;5027993;28;20177;-72
2022/05/26 04:17:27;;;;;;;10.40;3.58;;;;;;;;;;5046969;28;20654;-74
2022/05/26 04:19:52;;;;;;;12.98;3.75;;;;;;;;;;5045387;28;20209;-72
2022/05/26 04:22:18;;;;;;;9.83;3.67;;;;;;;;;;5046274;28;20174;-74
2022/05/26 04:24:47;;;;;;;9.32;3.40;;;;;;;;;;5049997;28;20464;-74
2022/05/26 04:27:13;;;;;;;10.60;3.35;;;;;;;;;;5047918;28;20205;-73
2022/05/26 04:29:38;;;;;;;14.10;3.58;;;;;;;;;;5030353;28;20725;-74
2022/05/26 04:32:04;;;;;;;11.48;3.42;;;;;;;;;;5050427;28;20646;-72
2022/05/26 04:34:29;;;;;;;10.68;3.08;;;;;;;;;;5049303;28;20683;-73
2022/05/26 04:36:54;;;;;;;10.70;3.37;;;;;;;;;;5049609;28;20185;-72
2022/05/26 04:39:20;;;;;;;12.00;3.73;;;;;;;;;;5049040;28;20447;-74
2022/05/26 04:41:45;;;;;;;9.73;3.42;;;;;;;;;;5047371;28;20472;-72
2022/05/26 04:44:11;;;;;;;11.20;4.22;;;;;;;;;;5050532;28;20257;-74
2022/05/26 04:46:38;;;;;;;9.70;4.60;;;;;;;;;;5047631;28;20621;-72
2022/05/26 04:49:03;;;;;;;9.88;3.53;;;;;;;;;;5031295;28;20182;-73
2022/05/26 04:51:29;;;;;;;10.50;3.03;;;;;;;;;;5042059;28;20196;-72
2022/05/26 04:53:54;;;;;;;9.20;3.90;;;;;;;;;;5045562;28;20228;-73
2022/05/26 04:56:19;;;;;;;14.10;4.10;;;;;;;;;;5044376;28;20234;-73
2022/05/26 04:58:46;;;;;;;10.98;4.03;;;;;;;;;;5042636;28;20209;-73
2022/05/26 05:01:12;;;;;;;14.88;3.72;;;;;;;;;;5036580;28;20178;-72
2022/05/26 05:03:37;;;;;;;8.45;3.70;;;;;;;;;;5043489;28;20242;-72
2022/05/26 05:06:03;;;;;;;10.93;3.88;;;;;;;;;;5046456;28;20697;-72
2022/05/26 05:08:29;;;;;;;8.32;3.42;;;;;;;;;;5045014;28;20248;-72
2022/05/26 05:10:54;;;;;;;11.00;3.20;;;;;;;;;;5045868;28;20181;-72
2022/05/26 05:13:19;;;;;;;8.50;2.97;;;;;;;;;;5042100;28;20200;-72
2022/05/26 05:15:49;;;;;;;7.63;3.23;;;;;;;;;;5042627;28;20317;-72
2022/05/26 05:18:14;;;;;;;10.32;3.25;;;;;;;;;;5041050;28;20454;-72
2022/05/26 05:20:40;;;;;;;6.17;3.50;;;;;;;;;;5047085;28;20197;-72
2022/05/26 05:23:08;;;;;;;8.27;3.22;;;;;;;;;;5047025;28;20805;-72
2022/05/26 05:25:36;;;;;;;9.05;2.67;;;;;;;;;;5048214;28;20221;-72
2022/05/26 05:28:03;;;;;;;11.23;3.25;;;;;;;;;;5047950;28;20177;-72
2022/05/26 05:30:34;;;;;;;13.23;3.50;;;;;;;;;;5046517;28;20184;-72
2022/05/26 05:33:04;;;;;;;9.88;3.92;;;;;;;;;;5046997;28;20198;-74
2022/05/26 05:35:32;;;;;;;8.80;3.05;;;;;;;;;;5048986;28;20194;-72
2022/05/26 05:37:58;;;;;;;11.07;4.22;;;;;;;;;;5046367;28;20759;-72
2022/05/26 05:40:23;;;;;;;8.50;2.60;;;;;;;;;;5036697;28;20260;-73
2022/05/26 05:42:48;;;;;;;5.82;2.47;;;;;;;;;;5037407;28;20201;-73
2022/05/26 05:45:13;;;;;;;8.73;3.35;;;;;;;;;;5042276;28;20264;-73
2022/05/26 05:47:38;;;;;;;7.15;2.45;;;;;;;;;;5049579;28;20237;-73
2022/05/26 05:50:04;;;;;;;10.87;3.23;;;;;;;;;;5048924;28;20182;-73
2022/05/26 05:52:29;;;;;;;9.18;2.53;;;;;;;;;;5045614;28;20419;-73
2022/05/26 05:54:55;;;;;;;11.02;3.00;;;;;;;;;;5042916;28;20180;-73
2022/05/26 05:57:20;;;;;;;6.43;2.42;;;;;;;;;;5044075;28;20169;-72
2022/05/26 05:59:45;;;;;;;11.50;3.08;;;;;;;;;;5043010;28;20216;-73
2022/05/26 06:02:10;;;;;;;9.13;2.27;;;;;;;;;;5046107;28;20170;-72
2022/05/26 06:04:41;;;;;;;5.45;2.65;;;;;;;;;;5047635;28;20427;-72
2022/05/26 06:07:07;;;;;;;9.00;2.55;;;;;;;;;;5025727;28;20184;-72
2022/05/26 06:09:32;;;;;;;15.20;4.15;;;;;;;;;;5045407;28;20185;-72
2022/05/26 06:11:57;;;;;;;9.87;2.90;;;;;;;;;;5043025;28;20196;-72
2022/05/26 06:14:23;;;;;;;9.77;3.70;;;;;;;;;;5045769;28;20979;-72
2022/05/26 06:16:48;;;;;;;11.05;3.63;;;;;;;;;;5042198;28;20426;-72
2022/05/26 06:19:13;;;;;;;8.03;2.67;;;;;;;;;;5045123;28;20726;-72
2022/05/26 06:21:39;;;;;;;6.63;2.38;;;;;;;;;;5045317;28;20427;-72
2022/05/26 06:24:05;;;;;;;8.07;3.03;;;;;;;;;;5046166;28;20570;-72
2022/05/26 06:26:30;;;;;;;8.35;2.50;;;;;;;;;;5047411;28;20189;-72
2022/05/26 06:37:13;;;;;;;7.53;2.78;;;;;;;;;;5046158;28;20227;-72
2022/05/26 06:37:16;;;;;;;7.95;2.47;;;;;;;;;;5047392;28;20184;-72
2022/05/26 06:39:41;;;;;;;7.18;2.47;;;;;;;;;;5043430;28;20485;-72
2022/05/26 06:42:07;;;;;;;13.93;4.43;;;;;;;;;;5052614;28;20670;-72
2022/05/26 06:44:52;;;;;;;10.65;2.70;;;;;;;;;;5052203;28;20184;-73
2022/05/26 06:47:19;;;;;;;6.95;2.88;;;;;;;;;;5030662;28;20265;-73
2022/05/26 06:49:45;;;;;;;6.40;2.60;;;;;;;;;;5043963;28;20229;-73
2022/05/26 06:52:11;;;;;;;16.25;5.47;;;;;;;;;;5042499;28;20182;-72
2022/05/26 06:54:38;;;;;;;12.20;4.32;;;;;;;;;;5047224;28;20197;-72
2022/05/26 06:57:04;;;;;;;7.63;3.22;;;;;;;;;;5033762;28;20182;-73
2022/05/26 06:59:29;;;;;;;9.52;3.70;;;;;;;;;;5043010;28;20205;-72
2022/05/26 07:01:54;;;;;;;9.53;3.57;;;;;;;;;;5044364;28;20257;-72
2022/05/26 07:04:20;;;;;;;6.53;2.80;;;;;;;;;;5052213;28;20960;-72
2022/05/26 07:06:52;;;;;;;12.48;2.75;;;;;;;;;;5048921;28;20249;-73
2022/05/26 07:09:18;;;;;;;6.88;2.78;;;;;;;;;;5052548;28;20674;-73
2022/05/26 07:11:43;;;;;;;4.88;1.90;;;;;;;;;;5030956;28;20194;-73
2022/05/26 07:14:08;;;;;;;6.78;2.03;;;;;;;;;;5030196;28;20193;-73
2022/05/26 07:16:34;;;;;;;8.23;2.78;;;;;;;;;;5031769;28;20209;-73
2022/05/26 07:18:59;;;;;;;8.48;2.72;;;;;;;;;;5048106;28;20286;-72
2022/05/26 07:21:24;;;;;;;8.55;2.63;;;;;;;;;;5048599;28;20173;-73
2022/05/26 07:23:49;;;;;;;7.77;3.07;;;;;;;;;;5052876;28;20638;-73
2022/05/26 07:26:15;;;;;;;9.73;2.30;;;;;;;;;;5036633;28;20493;-73
2022/05/26 07:28:41;;;;;;;8.88;2.13;;;;;;;;;;5048413;28;21037;-73
2022/05/26 07:31:07;;;;;;;8.07;2.50;;;;;;;;;;5047684;28;20210;-73
2022/05/26 07:33:32;;;;;;;6.50;2.10;;;;;;;;;;5027024;28;20197;-72
2022/05/26 07:35:58;;;;;;;3.45;1.85;;;;;;;;;;5040436;28;20555;-72
2022/05/26 07:41:18;;;;;;;10.63;3.40;;;;;;;;;;5041898;28;20414;-73
2022/05/26 07:43:47;;;;;;;4.82;1.70;;;;;;;;;;5044021;28;20600;-73
2022/05/26 07:46:12;;;;;;;9.93;2.10;;;;;;;;;;5022422;28;20182;-73
2022/05/26 07:48:37;;;;;;;6.65;2.90;;;;;;;;;;5040974;28;20227;-73
2022/05/26 07:51:03;;;;;;;10.40;2.45;;;;;;;;;;5024592;28;20208;-72
2022/05/26 07:53:28;;;;;;;7.10;2.63;;;;;;;;;;5044971;28;20228;-72
2022/05/26 07:55:53;;;;;;;6.03;2.77;;;;;;;;;;5045702;28;20659;-73
2022/05/26 07:58:20;;;;;;;11.32;2.67;;;;;;;;;;5046240;28;20489;-73
2022/05/26 08:00:45;;;;;;;6.75;2.20;;;;;;;;;;5040116;28;20611;-73
2022/05/26 08:03:11;;;;;;;8.60;2.40;;;;;;;;;;5035482;28;20298;-73
2022/05/26 08:05:37;;;;;;;7.28;2.33;;;;;;;;;;5038659;28;20174;-72
2022/05/26 08:08:02;;;;;;;7.72;2.10;;;;;;;;;;5036722;28;20188;-72
2022/05/26 08:10:27;;;;;;;5.93;2.20;;;;;;;;;;5040647;28;20182;-72
2022/05/26 08:12:52;;;;;;;5.60;2.60;;;;;;;;;;5034730;28;20198;-72
2022/05/26 08:15:19;;;;;;;5.75;2.55;;;;;;;;;;5050932;28;20930;-72
2022/05/26 08:17:44;;;;;;;6.57;2.63;;;;;;;;;;5051910;28;20172;-72
2022/05/26 08:20:10;;;;;;;9.10;2.78;;;;;;;;;;5049441;28;20200;-71
2022/05/26 08:22:35;;;;;;;6.38;2.53;;;;;;;;;;5051232;28;20654;-71
2022/05/26 08:25:00;;;;;;;5.60;2.55;;;;;;;;;;5043282;28;20201;-71
2022/05/26 08:27:26;;;;;;;5.43;2.65;;;;;;;;;;5040482;28;20201;-71
2022/05/26 08:29:52;;;;;;;6.10;2.10;;;;;;;;;;5041210;28;20185;-71
2022/05/26 08:32:18;;;;;;;5.43;1.85;;;;;;;;;;5039335;28;20177;-71
2022/05/26 08:34:43;;;;;;;5.50;2.20;;;;;;;;;;5039334;28;20207;-71
2022/05/26 08:37:16;;;;;;;6.10;2.78;;;;;;;;;;5040284;28;20698;-72
2022/05/26 08:39:41;;;;;;;7.28;2.50;;;;;;;;;;5025581;28;20201;-71
2022/05/26 08:42:07;;;;;;;5.35;2.28;;;;;;;;;;5041208;28;20235;-71
2022/05/26 08:44:34;;;;;;;7.35;2.30;;;;;;;;;;5045555;28;20186;-71
2022/05/26 08:47:20;;;;;;;5.50;2.25;;;;;;;;;;5040454;28;20188;-71
2022/05/26 08:50:06;;;;;;;6.25;2.90;;;;;;;;;;5022068;28;20185;-70
2022/05/26 08:52:34;;;;;;;8.50;1.90;;;;;;;;;;5038563;28;20667;-71
2022/05/26 08:55:02;;;;;;;7.07;2.17;;;;;;;;;;5039898;28;20179;-70
2022/05/26 08:57:33;;;;;;;5.75;2.60;;;;;;;;;;5040707;28;20320;-71
2022/05/26 08:59:59;;;;;;;6.57;2.38;;;;;;;;;;5038197;28;20217;-71
2022/05/26 09:02:24;;;;;;;7.50;2.22;;;;;;;;;;5039438;28;20205;-70
2022/05/26 09:04:50;;;;;;;8.18;2.55;;;;;;;;;;5040901;28;20200;-71
2022/05/26 09:12:57;;;;;;;5.43;1.88;;;;;;;;;;5043891;28;20207;-72
2022/05/26 09:15:23;;;;;;;8.93;3.30;;;;;;;;;;5040266;28;20228;-71
2022/05/26 09:17:48;;;;;;;5.82;2.35;;;;;;;;;;5034436;28;20244;-71
2022/05/26 09:20:25;;;;;;;4.88;1.83;;;;;;;;;;5040882;28;20817;-72
2022/05/26 09:22:51;;;;;;;7.70;2.33;;;;;;;;;;5040643;28;20236;-72
2022/05/26 09:25:37;;;;;;;5.28;2.30;;;;;;;;;;5040687;28;20210;-71
2022/05/26 09:28:03;;;;;;;5.38;1.50;;;;;;;;;;5025550;28;20185;-72
2022/05/26 09:30:29;;;;;;;8.85;1.60;;;;;;;;;;5049431;28;20646;-72
2022/05/26 09:32:55;;;;;;;8.00;1.92;;;;;;;;;;5016340;28;20213;-72
2022/05/26 09:35:20;;;;;;;4.97;1.20;;;;;;;;;;5006277;28;20178;-71
2022/05/26 09:37:47;;;;;;;5.85;1.45;;;;;;;;;;5021568;28;20179;-71
2022/05/26 09:40:12;;;;;;;4.15;1.63;;;;;;;;;;5028176;28;20581;-71
2022/05/26 09:42:40;;;;;;;8.20;1.65;;;;;;;;;;5023573;28;20190;-73
2022/05/26 09:45:11;;;;;;;6.10;1.98;;;;;;;;;;5026303;28;20644;-72
2022/05/26 09:47:48;;;;;;;6.32;2.33;;;;;;;;;;5005643;28;20182;-71
2022/05/26 09:50:32;;;;;;;5.28;1.60;;;;;;;;;;5025866;28;20174;-72
2022/05/26 09:52:58;;;;;;;4.03;1.80;;;;;;;;;;5025281;28;20217;-72
2022/05/26 09:55:26;;;;;;;5.72;1.35;;;;;;;;;;5027053;28;20189;-72
2022/05/26 09:58:05;;;;;;;5.63;1.60;;;;;;;;;;5023360;28;20189;-71
2022/05/26 10:00:35;;;;;;;8.15;2.47;;;;;;;;;;5023434;28;20654;-71
2022/05/26 10:03:03;;;;;;;6.30;2.20;;;;;;;;;;5024375;28;20780;-71
2022/05/26 10:05:32;;;;;;;6.38;1.98;;;;;;;;;;5024372;28;20201;-71
2022/05/26 10:08:02;;;;;;;7.72;2.28;;;;;;;;;;5028761;28;20203;-71
2022/05/26 10:10:34;;;;;;;5.00;1.42;;;;;;;;;;5025218;28;20182;-71
2022/05/26 10:13:10;;;;;;;6.97;1.80;;;;;;;;;;5028752;28;21013;-71
2022/05/26 10:16:05;;;;;;;4.63;1.50;;;;;;;;;;5031322;28;20264;-71
2022/05/26 10:18:49;;;;;;;8.02;1.60;;;;;;;;;;5006836;28;20300;-71
2022/05/26 10:21:22;;;;;;;5.05;1.63;;;;;;;;;;5026991;28;20260;-71
2022/05/26 10:23:51;;;;;;;4.80;1.60;;;;;;;;;;5026669;28;20202;-72
2022/05/26 10:26:16;;;;;;;4.82;1.48;;;;;;;;;;5025494;28;20171;-72
2022/05/26 10:29:00;;;;;;;4.13;1.30;;;;;;;;;;5022659;28;20182;-72
2022/05/26 10:31:28;;;;;;;8.70;1.70;;;;;;;;;;5028397;28;20189;-72
2022/05/26 10:33:57;;;;;;;4.07;1.52;;;;;;;;;;5009989;28;20431;-71
2022/05/26 10:36:25;;;;;;;5.63;1.83;;;;;;;;;;5026933;28;20762;-72
2022/05/26 10:38:53;;;;;;;7.28;1.55;;;;;;;;;;5029993;28;20189;-72
2022/05/26 10:41:33;;;;;;;8.32;1.30;;;;;;;;;;5027022;28;20189;-72
2022/05/26 10:44:08;;;;;;;6.22;1.85;;;;;;;;;;5025093;28;20194;-71
2022/05/26 10:46:35;;;;;;;2.22;1.00;;;;;;;;;;5028691;28;20821;-72
2022/05/26 10:49:12;;;;;;;5.63;2.03;;;;;;;;;;5030583;28;20660;-73
2022/05/26 10:51:40;;;;;;;6.20;1.60;;;;;;;;;;5029050;28;20664;-72
2022/05/26 10:54:10;;;;;;;2.20;1.33;;;;;;;;;;5024150;28;20609;-71
2022/05/26 10:56:39;;;;;;;8.23;1.73;;;;;;;;;;5013069;28;20216;-71
2022/05/26 10:59:12;;;;;;;5.72;1.77;;;;;;;;;;5026074;28;20205;-72
2022/05/26 11:01:46;;;;;;;7.30;1.55;;;;;;;;;;5036814;28;20713;-71
2022/05/26 11:04:19;;;;;;;5.38;1.30;;;;;;;;;;5030577;28;20220;-71
2022/05/26 11:06:45;;;;;;;3.85;1.48;;;;;;;;;;5029878;28;20670;-70
2022/05/26 11:09:21;;;;;;;5.00;1.50;;;;;;;;;;5031239;28;20277;-71
2022/05/26 11:11:51;;;;;;;4.45;1.42;;;;;;;;;;5015534;28;20185;-70
2022/05/26 11:17:24;;;;;;;5.90;1.50;;;;;;;;;;5028941;28;20193;-71
2022/05/26 11:19:53;;;;;;;6.35;1.33;;;;;;;;;;5028006;28;20626;-71
2022/05/26 11:22:18;;;;;;;5.25;1.42;;;;;;;;;;5030633;28;20177;-72
2022/05/26 11:24:47;;;;;;;4.97;1.40;;;;;;;;;;5024292;28;20749;-70
2022/05/26 11:27:16;;;;;;;3.88;1.10;;;;;;;;;;5028302;28;20213;-72
2022/05/26 11:29:47;;;;;;;6.97;1.50;;;;;;;;;;5024094;28;20185;-71
2022/05/26 11:37:54;;;;;;;3.05;1.20;;;;;;;;;;5024646;28;21077;-70
2022/05/26 11:40:27;;;;;;;5.22;1.38;;;;;;;;;;5030162;28;20198;-70
2022/05/26 11:42:54;;;;;;;3.92;0.90;;;;;;;;;;5030223;28;20201;-71
2022/05/26 11:45:21;;;;;;;3.60;1.20;;;;;;;;;;5025253;28;20181;-71
2022/05/26 11:47:48;;;;;;;4.35;1.38;;;;;;;;;;5025144;28;20770;-71
2022/05/26 11:50:22;;;;;;;7.40;1.52;;;;;;;;;;5028808;28;20198;-69
2022/05/26 11:52:47;;;;;;;5.97;2.47;;;;;;;;;;5030092;28;20213;-71
2022/05/26 11:55:17;;;;;;;3.75;1.02;;;;;;;;;;5026077;28;20189;-70
2022/05/26 11:57:42;;;;;;;4.18;1.00;;;;;;;;;;5032505;28;20264;-71
2022/05/26 12:00:17;;;;;;;6.15;1.10;;;;;;;;;;5027612;28;20201;-70
2022/05/26 12:02:43;;;;;;;3.95;1.20;;;;;;;;;;5027285;28;20197;-70
2022/05/26 12:05:27;;;;;;;4.45;1.00;;;;;;;;;;5022779;28;20173;-69
2022/05/26 12:07:52;;;;;;;6.07;2.13;;;;;;;;;;5011636;28;20231;-71
2022/05/26 12:10:19;;;;;;;3.88;1.40;;;;;;;;;;5032060;28;20198;-70
2022/05/26 12:12:45;;;;;;;4.60;1.02;;;;;;;;;;5029008;28;20233;-70
2022/05/26 12:15:28;;;;;;;3.80;0.80;;;;;;;;;;5032522;28;20329;-69
2022/05/26 12:17:56;;;;;;;3.42;1.00;;;;;;;;;;5023530;28;20209;-71
2022/05/26 12:20:21;;;;;;;3.17;0.93;;;;;;;;;;5024033;28;20325;-70
2022/05/26 12:22:49;;;;;;;4.53;1.15;;;;;;;;;;5025184;28;20189;-71
2022/05/26 12:25:14;;;;;;;6.05;1.52;;;;;;;;;;5025736;28;20182;-72
2022/05/26 12:27:49;;;;;;;6.00;1.30;;;;;;;;;;5026571;28;20174;-71
2022/05/26 12:30:32;;;;;;;5.40;1.15;;;;;;;;;;5025821;28;20601;-71
2022/05/26 12:32:59;;;;;;;3.22;1.30;;;;;;;;;;5025266;28;20689;-72
2022/05/26 12:35:36;;;;;;;4.32;1.67;;;;;;;;;;5024444;28;20239;-71
2022/05/26 12:38:05;;;;;;;5.82;2.55;;;;;;;;;;5026595;28;20261;-71
2022/05/26 12:40:43;;;;;;;3.50;1.48;;;;;;;;;;5025100;28;20663;-73
2022/05/26 12:43:08;;;;;;;6.20;1.40;;;;;;;;;;5026022;28;20213;-72
2022/05/26 12:45:40;;;;;;;2.63;1.05;;;;;;;;;;5009213;28;20973;-72
2022/05/26 12:48:16;;;;;;;3.47;1.25;;;;;;;;;;5024972;28;20623;-72
2022/05/26 12:50:42;;;;;;;2.92;1.23;;;;;;;;;;5026264;28;20177;-71
2022/05/26 12:53:28;;;;;;;4.43;1.50;;;;;;;;;;5023175;28;20726;-72
2022/05/26 12:55:58;;;;;;;6.22;1.55;;;;;;;;;;5022661;28;20201;-71
2022/05/26 12:58:32;;;;;;;3.40;1.05;;;;;;;;;;5006951;28;20201;-71
2022/05/26 13:01:02;;;;;;;4.68;1.70;;;;;;;;;;5027998;28;20200;-71
2022/05/26 13:03:30;;;;;;;4.85;1.30;;;;;;;;;;5024249;28;20722;-71
2022/05/26 13:06:00;;;;;;;5.10;1.30;;;;;;;;;;5024421;28;20655;-71
2022/05/26 13:08:27;;;;;;;3.42;1.00;;;;;;;;;;5028081;28;21508;-72
2022/05/26 13:10:56;;;;;;;7.95;2.58;;;;;;;;;;5024060;28;20204;-71
2022/05/26 13:13:22;;;;;;;8.07;1.95;;;;;;;;;;5020420;28;20287;-71
2022/05/26 13:15:48;;;;;;;4.13;1.10;;;;;;;;;;5031577;28;20202;-71
2022/05/26 13:18:21;;;;;;;5.15;1.40;;;;;;;;;;5025093;28;20186;-69
2022/05/26 13:20:47;;;;;;;5.07;1.60;;;;;;;;;;5024561;28;20236;-69
2022/05/26 13:23:24;;;;;;;3.67;1.42;;;;;;;;;;5024310;28;20205;-69
2022/05/26 13:25:49;;;;;;;4.32;1.50;;;;;;;;;;5021920;28;20205;-70
2022/05/26 13:28:23;;;;;;;3.40;1.30;;;;;;;;;;5023562;28;20590;-67
2022/05/26 13:33:48;;;;;;;3.17;1.17;;;;;;;;;;5023772;28;20311;-70
2022/05/26 13:36:22;;;;;;;4.25;1.00;;;;;;;;;;5043046;28;20264;-70
2022/05/26 13:38:48;;;;;;;2.35;0.80;;;;;;;;;;5026559;28;20243;-70
2022/05/26 13:41:23;;;;;;;3.97;1.40;;;;;;;;;;5024113;28;20268;-71
2022/05/26 13:43:48;;;;;;;3.85;0.60;;;;;;;;;;5008708;28;20275;-70
2022/05/26 13:46:19;;;;;;;1.90;0.90;;;;;;;;;;5022994;28;20312;-69
2022/05/26 13:48:44;;;;;;;3.30;0.82;;;;;;;;;;5004628;28;20201;-70
2022/05/26 13:51:15;;;;;;;2.63;0.70;;;;;;;;;;5029382;28;20177;-70
2022/05/26 13:53:45;;;;;;;4.18;0.93;;;;;;;;;;5026414;28;20537;-69
2022/05/26 13:56:14;;;;;;;1.98;0.70;;;;;;;;;;5022854;28;20170;-70
2022/05/26 13:58:43;;;;;;;2.95;1.05;;;;;;;;;;5021559;28;20225;-70
2022/05/26 14:01:09;;;;;;;3.80;1.13;;;;;;;;;;5029267;28;20189;-69
2022/05/26 14:03:36;;;;;;;2.25;0.70;;;;;;;;;;5039661;28;20210;-70
2022/05/26 14:06:06;;;;;;;5.63;1.20;;;;;;;;;;5024979;28;20683;-70
2022/05/26 14:08:31;;;;;;;4.00;0.77;;;;;;;;;;5026718;28;20186;-71
2022/05/26 14:10:57;;;;;;;3.58;0.90;;;;;;;;;;5025414;28;20611;-71
2022/05/26 14:13:33;;;;;;;4.43;1.05;;;;;;;;;;5024343;28;20229;-70
2022/05/26 14:16:05;;;;;;;2.75;0.90;;;;;;;;;;5029746;28;20659;-71
2022/05/26 14:18:30;;;;;;;5.80;1.10;;;;;;;;;;5024636;28;20214;-70
2022/05/26 14:21:00;;;;;;;2.90;0.93;;;;;;;;;;5024307;28;20182;-70
2022/05/26 14:23:26;;;;;;;2.35;0.88;;;;;;;;;;5012345;28;20206;-70
2022/05/26 14:25:58;;;;;;;2.40;1.27;;;;;;;;;;5024815;28;20450;-72
2022/05/26 14:28:31;;;;;;;4.75;1.10;;;;;;;;;;5009894;28;20209;-70
2022/05/26 14:30:56;;;;;;;3.35;0.90;;;;;;;;;;5023110;28;20826;-70
2022/05/26 14:33:21;;;;;;;1.90;0.80;;;;;;;;;;5026191;28;21097;-69
2022/05/26 14:35:47;;;;;;;2.27;0.90;;;;;;;;;;5022598;28;21067;-70
2022/05/26 14:38:12;;;;;;;4.07;1.02;;;;;;;;;;5030395;28;20928;-69
2022/05/26 14:40:38;;;;;;;4.53;1.20;;;;;;;;;;5031449;28;20169;-70
2022/05/26 14:43:05;;;;;;;4.60;1.23;;;;;;;;;;5035455;28;20256;-69
2022/05/26 14:45:30;;;;;;;4.68;1.67;;;;;;;;;;5022968;28;20443;-69
2022/05/26 14:47:55;;;;;;;4.23;1.53;;;;;;;;;;5022861;28;20177;-70
2022/05/26 14:50:20;;;;;;;3.50;1.00;;;;;;;;;;5030264;28;20526;-69
2022/05/26 14:52:47;;;;;;;4.77;1.50;;;;;;;;;;5021677;28;20355;-70
2022/05/26 14:55:29;;;;;;;2.50;0.88;;;;;;;;;;5023317;28;20788;-70
2022/05/26 14:58:05;;;;;;;1.83;1.05;;;;;;;;;;5030599;28;20190;-70
2022/05/26 15:00:32;;;;;;;6.03;1.20;;;;;;;;;;5026344;28;20280;-69
2022/05/26 15:02:58;;;;;;;7.57;1.30;;;;;;;;;;5025474;28;20193;-70
2022/05/26 15:05:23;;;;;;;3.50;1.33;;;;;;;;;;5028698;28;20279;-70
2022/05/26 15:07:49;;;;;;;3.42;1.00;;;;;;;;;;5028950;28;20177;-70
2022/05/26 15:10:15;;;;;;;2.90;0.98;;;;;;;;;;5029453;28;20268;-70
2022/05/26 15:12:41;;;;;;;2.10;0.85;;;;;;;;;;5028064;28;20267;-70
2022/05/26 15:15:08;;;;;;;3.83;1.10;;;;;;;;;;5026789;28;20598;-69
2022/05/26 15:17:33;;;;;;;3.10;0.90;;;;;;;;;;5010376;28;20190;-70
2022/05/26 15:19:59;;;;;;;3.85;1.08;;;;;;;;;;5026992;28;20227;-68